createdAt,value
2023-02-06T00:03:00.726Z,16.73
2023-02-06T00:07:03.409Z,16.70
2023-02-06T00:11:07.544Z,18.47
2023-02-06T00:15:08.650Z,15.47
2023-02-06T00:19:08.856Z,19.13
2023-02-06T00:23:11.503Z,16.90
2023-02-06T00:27:11.671Z,15.17
2023-02-06T00:31:12.906Z,14.93
2023-02-06T00:35:13.057Z,17.47
2023-02-06T00:39:16.876Z,14.83
2023-02-06T00:43:17.411Z,18.13
2023-02-06T00:47:17.797Z,13.27
2023-02-06T00:51:19.161Z,14.97
2023-02-06T00:55:22.132Z,16.83
2023-02-06T00:59:22.266Z,14.43
2023-02-06T01:03:22.323Z,13.07
2023-02-06T01:07:22.434Z,16.00
2023-02-06T01:11:28.599Z,19.50
2023-02-06T01:15:28.988Z,14.40
2023-02-06T01:19:29.689Z,16.10
2023-02-06T01:23:29.837Z,15.30
2023-02-06T01:27:33.132Z,13.40
2023-02-06T01:31:34.836Z,13.90
2023-02-06T01:35:37.630Z,13.80
2023-02-06T01:39:37.973Z,12.10
2023-02-06T01:43:45.526Z,12.53
2023-02-06T01:47:45.611Z,13.23
2023-02-06T01:51:46.675Z,14.07
2023-02-06T01:55:50.443Z,14.53
2023-02-06T02:00:01.896Z,13.03
2023-02-06T02:04:20.733Z,11.63
2023-02-06T02:08:29.373Z,13.67
2023-02-06T02:12:29.686Z,11.43
2023-02-06T02:16:50.227Z,12.93
2023-02-06T02:21:39.219Z,15.43
2023-02-06T02:26:24.675Z,13.87
2023-02-06T02:31:03.531Z,11.53
2023-02-06T02:35:25.371Z,11.70
2023-02-06T02:39:38.242Z,10.60
2023-02-06T02:43:45.647Z,12.27
2023-02-06T02:48:00.889Z,12.00
2023-02-06T02:52:05.310Z,14.00
2023-02-06T02:56:12.761Z,12.80
2023-02-06T03:00:16.069Z,12.50
2023-02-06T03:04:25.723Z,12.70
2023-02-06T03:08:41.961Z,13.17
2023-02-06T03:12:48.805Z,11.97
2023-02-06T03:16:55.508Z,17.87
2023-02-06T03:20:55.977Z,13.20
2023-02-06T03:25:00.795Z,12.67
2023-02-06T03:29:06.930Z,13.17
2023-02-06T03:33:11.070Z,16.63
2023-02-06T03:37:12.164Z,14.97
2023-02-06T03:41:18.004Z,14.47
2023-02-06T03:45:25.515Z,14.63
2023-02-06T03:49:32.167Z,14.10
2023-02-06T03:53:36.181Z,18.97
2023-02-06T03:57:40.871Z,23.40
2023-02-06T04:01:45.131Z,37.80
2023-02-06T04:05:45.347Z,26.97
2023-02-06T04:09:45.409Z,17.50
2023-02-06T04:13:48.026Z,14.97
2023-02-06T04:17:59.534Z,16.87
2023-02-06T04:22:00.921Z,18.47
2023-02-06T04:26:01.212Z,21.77
2023-02-06T04:30:04.100Z,18.90
2023-02-06T04:34:04.210Z,15.77
2023-02-06T04:38:04.341Z,14.60
2023-02-06T04:42:04.657Z,16.37
2023-02-06T04:46:07.720Z,14.87
2023-02-06T04:50:10.581Z,13.90
2023-02-06T04:54:14.569Z,16.30
2023-02-06T04:58:15.040Z,15.23
2023-02-06T05:02:18.054Z,13.40
2023-02-06T05:06:19.123Z,23.20
2023-02-06T05:10:19.513Z,26.70
2023-02-06T05:14:19.685Z,17.73
2023-02-06T05:18:23.140Z,14.43
2023-02-06T05:22:23.215Z,15.97
2023-02-06T05:26:23.733Z,15.77
2023-02-06T05:30:24.161Z,14.37
2023-02-06T05:34:27.159Z,14.33
2023-02-06T05:38:27.404Z,15.10
2023-02-06T05:42:28.061Z,15.93
2023-02-06T05:46:28.458Z,16.60
2023-02-06T05:50:31.237Z,15.20
2023-02-06T05:54:32.492Z,16.63
2023-02-06T05:58:32.632Z,17.73
2023-02-06T06:02:32.691Z,18.43
2023-02-06T06:06:35.487Z,18.20
2023-02-06T06:10:35.622Z,16.33
2023-02-06T06:14:35.682Z,21.93
2023-02-06T06:18:35.920Z,16.90
2023-02-06T06:22:39.659Z,19.03
2023-02-06T06:26:39.749Z,20.43
2023-02-06T06:30:40.282Z,16.73
2023-02-06T06:34:40.366Z,18.07
2023-02-06T06:38:43.087Z,21.90
2023-02-06T06:42:43.346Z,17.70
2023-02-06T06:46:43.540Z,17.77
2023-02-06T06:50:43.756Z,17.03
2023-02-06T06:54:46.714Z,16.23
2023-02-06T06:58:46.998Z,19.60
2023-02-06T07:02:47.331Z,20.87
2023-02-06T07:06:47.468Z,21.10
2023-02-06T07:10:50.836Z,24.87
2023-02-06T07:14:51.078Z,20.47
2023-02-06T07:18:51.200Z,19.13
2023-02-06T07:22:51.502Z,23.33
2023-02-06T07:26:54.112Z,25.67
2023-02-06T07:30:54.173Z,22.63
2023-02-06T07:34:54.332Z,28.07
2023-02-06T07:38:54.389Z,27.40
2023-02-06T07:42:57.026Z,26.23
2023-02-06T07:47:00.486Z,23.07
2023-02-06T07:51:06.225Z,22.90
2023-02-06T07:55:06.833Z,23.07
2023-02-06T07:59:10.288Z,23.13
2023-02-06T08:03:10.917Z,20.83
2023-02-06T08:07:15.075Z,24.20
2023-02-06T08:11:18.704Z,24.03
2023-02-06T08:15:21.656Z,33.00
2023-02-06T08:19:21.894Z,24.57
2023-02-06T08:23:22.278Z,55.83
2023-02-06T08:27:22.455Z,26.20
2023-02-06T08:31:28.936Z,24.30
2023-02-06T08:35:29.556Z,23.73
2023-02-06T08:39:30.749Z,23.20
2023-02-06T08:43:33.013Z,21.10
2023-02-06T08:47:35.869Z,18.23
2023-02-06T08:51:37.937Z,20.90
2023-02-06T08:55:38.608Z,18.77
2023-02-06T08:59:39.051Z,21.00
2023-02-06T09:03:41.877Z,18.10
2023-02-06T09:07:41.976Z,17.70
2023-02-06T09:11:42.560Z,15.53
2023-02-06T09:15:44.155Z,16.57
2023-02-06T09:19:46.933Z,17.83
2023-02-06T09:23:50.144Z,15.03
2023-02-06T09:27:53.163Z,16.77
2023-02-06T09:31:53.292Z,14.27
2023-02-06T09:36:05.444Z,12.50
2023-02-06T09:40:05.606Z,12.23
2023-02-06T09:44:15.310Z,12.03
2023-02-06T09:48:23.317Z,8.70
2023-02-06T09:53:01.857Z,13.00
2023-02-06T09:57:10.844Z,13.43
2023-02-06T10:01:22.187Z,11.80
2023-02-06T10:05:36.809Z,9.13
2023-02-06T10:09:45.726Z,13.43
2023-02-06T10:13:54.542Z,10.60
2023-02-06T10:18:03.082Z,9.43
2023-02-06T10:22:09.976Z,8.53
2023-02-06T10:26:18.660Z,10.83
2023-02-06T10:30:22.668Z,6.93
2023-02-06T10:35:06.387Z,9.87
2023-02-06T10:39:27.846Z,10.30
2023-02-06T10:43:43.708Z,9.27
2023-02-06T10:47:55.186Z,14.73
2023-02-06T10:52:02.830Z,9.53
2023-02-06T10:56:07.180Z,7.03
2023-02-06T11:00:20.223Z,7.17
2023-02-06T11:04:27.965Z,7.60
2023-02-06T11:08:33.870Z,7.70
2023-02-06T11:12:39.017Z,7.63
2023-02-06T11:16:43.241Z,8.90
2023-02-06T11:20:47.425Z,9.83
2023-02-06T11:25:04.114Z,8.10
2023-02-06T11:29:18.816Z,8.03
2023-02-06T11:33:31.236Z,8.37
2023-02-06T11:37:38.481Z,7.93
2023-02-06T11:41:38.617Z,9.13
2023-02-06T11:45:39.621Z,8.10
2023-02-06T11:49:42.737Z,8.87
2023-02-06T11:53:58.549Z,8.90
2023-02-06T11:58:22.485Z,8.57
2023-02-06T12:02:32.042Z,11.30
2023-02-06T12:06:39.096Z,11.80
2023-02-06T12:10:49.164Z,12.47
2023-02-06T12:14:55.835Z,13.73
2023-02-06T12:19:00.725Z,16.53
2023-02-06T12:23:14.722Z,10.53
2023-02-06T12:27:22.661Z,13.50
2023-02-06T12:31:32.234Z,9.83
2023-02-06T12:35:43.878Z,9.57
2023-02-06T12:39:47.405Z,10.20
2023-02-06T12:43:54.733Z,11.97
2023-02-06T12:48:04.447Z,10.87
2023-02-06T12:52:17.452Z,13.90
2023-02-06T12:56:31.428Z,12.53
2023-02-06T13:01:08.289Z,9.90
2023-02-06T13:05:25.221Z,14.13
2023-02-06T13:09:32.462Z,10.17
2023-02-06T13:13:39.310Z,9.97
2023-02-06T13:17:44.880Z,11.40
2023-02-06T13:21:53.873Z,14.53
2023-02-06T13:25:56.973Z,9.97
2023-02-06T13:30:18.557Z,10.73
2023-02-06T13:34:21.743Z,11.40
2023-02-06T13:38:42.379Z,11.37
2023-02-06T13:42:51.993Z,14.47
2023-02-06T13:47:31.287Z,9.60
2023-02-06T13:51:52.567Z,10.40
2023-02-06T13:56:22.000Z,12.83
2023-02-06T14:00:28.995Z,10.93
2023-02-06T14:04:34.549Z,10.47
2023-02-06T14:08:51.516Z,9.47
2023-02-06T14:13:10.664Z,11.80
2023-02-06T14:17:28.280Z,14.37
2023-02-06T14:21:49.593Z,10.90
2023-02-06T14:26:27.607Z,9.03
2023-02-06T14:30:40.380Z,11.87
2023-02-06T14:35:01.555Z,12.73
2023-02-06T14:39:48.814Z,12.33
2023-02-06T14:43:53.599Z,25.23
2023-02-06T14:47:56.046Z,14.97
2023-02-06T14:51:56.406Z,11.50
2023-02-06T14:56:12.387Z,11.73
2023-02-06T15:00:22.487Z,11.13
2023-02-06T15:04:26.140Z,14.27
2023-02-06T15:08:26.190Z,12.57
2023-02-06T15:12:32.195Z,14.70
2023-02-06T15:16:33.123Z,14.40
2023-02-06T15:20:40.471Z,15.03
2023-02-06T15:25:13.102Z,16.30
2023-02-06T15:29:23.081Z,13.70
2023-02-06T15:38:42.834Z,15.63
2023-02-06T15:42:48.346Z,19.07
2023-02-06T15:46:55.730Z,15.33
2023-02-06T15:51:05.765Z,21.03
2023-02-06T15:55:08.807Z,17.83
2023-02-06T15:59:21.934Z,20.43
2023-02-06T16:03:32.681Z,19.87
2023-02-06T16:07:37.456Z,21.10
2023-02-06T16:11:52.455Z,19.67
2023-02-06T16:16:22.926Z,23.67
2023-02-06T16:20:40.993Z,23.27
2023-02-06T16:24:41.204Z,23.03
2023-02-06T16:28:52.555Z,20.30
2023-02-06T16:32:55.562Z,24.37
2023-02-06T16:37:01.210Z,28.47
2023-02-06T16:41:02.579Z,21.00
2023-02-06T16:45:12.099Z,21.90
2023-02-06T16:49:16.450Z,24.17
2023-02-06T16:53:24.056Z,25.20
2023-02-06T16:57:30.897Z,21.87
2023-02-06T17:01:33.182Z,34.77
2023-02-06T17:05:36.190Z,23.10
2023-02-06T17:09:39.123Z,22.03
2023-02-06T17:13:39.355Z,23.70
2023-02-06T17:17:39.754Z,20.33
2023-02-06T17:21:40.136Z,19.27
2023-02-06T17:25:46.347Z,19.90
2023-02-06T17:29:47.766Z,17.17
2023-02-06T17:33:48.185Z,15.10
2023-02-06T17:37:49.335Z,13.77
2023-02-06T17:41:53.180Z,11.27
2023-02-06T17:45:53.258Z,13.70
2023-02-06T17:49:53.556Z,12.37
2023-02-06T17:53:54.716Z,15.40
2023-02-06T17:57:59.103Z,21.03
2023-02-06T18:02:00.136Z,13.63
2023-02-06T18:06:02.804Z,12.13
2023-02-06T18:10:11.128Z,14.03
2023-02-06T18:14:13.876Z,12.43
2023-02-06T18:18:17.959Z,12.57
2023-02-06T18:22:27.106Z,13.73
2023-02-06T18:26:30.797Z,16.13
2023-02-06T18:30:36.833Z,16.47
2023-02-06T18:34:37.642Z,13.93
2023-02-06T18:38:38.264Z,17.10
2023-02-06T18:42:50.795Z,16.13
2023-02-06T18:46:53.909Z,16.00
2023-02-06T18:50:56.972Z,16.60
2023-02-06T18:54:58.825Z,13.23
2023-02-06T18:58:59.256Z,12.53
2023-02-06T19:03:04.679Z,11.53
2023-02-06T19:07:04.862Z,13.57
2023-02-06T19:11:05.222Z,13.50
2023-02-06T19:15:05.527Z,16.23
2023-02-06T19:19:09.753Z,27.33
2023-02-06T19:23:10.253Z,22.93
2023-02-06T19:27:10.575Z,24.60
2023-02-06T19:31:13.143Z,23.63
2023-02-06T19:35:17.325Z,22.23
2023-02-06T19:39:17.737Z,24.80
2023-02-06T19:43:19.119Z,23.07
2023-02-06T19:47:19.289Z,21.90
2023-02-06T19:51:25.966Z,21.73
2023-02-06T19:55:26.102Z,24.13
2023-02-06T19:59:29.481Z,84.03
2023-02-06T20:03:29.754Z,46.50
2023-02-06T20:07:33.157Z,29.87
2023-02-06T20:11:35.607Z,31.83
2023-02-06T20:15:41.259Z,28.77
2023-02-06T20:19:41.587Z,33.27
2023-02-06T20:23:44.279Z,40.53
2023-02-06T20:27:44.413Z,30.57
2023-02-06T20:31:45.083Z,28.57
2023-02-06T20:35:46.105Z,129.13
2023-02-06T20:39:49.556Z,61.27
2023-02-06T20:43:51.150Z,85.50
2023-02-06T20:47:51.348Z,55.30
2023-02-06T20:51:52.809Z,34.83
2023-02-06T20:55:55.710Z,31.03
2023-02-06T20:59:56.188Z,30.17
2023-02-06T21:04:02.657Z,29.17
2023-02-06T21:08:04.573Z,35.77
2023-02-06T21:12:08.069Z,30.30
2023-02-06T21:16:10.865Z,29.30
2023-02-06T21:20:14.038Z,29.73
2023-02-06T21:24:14.662Z,38.70
2023-02-06T21:28:19.304Z,33.60
2023-02-06T21:32:19.519Z,27.53
2023-02-06T21:36:21.322Z,28.93
2023-02-06T21:40:21.641Z,27.23
2023-02-06T21:44:26.601Z,27.70
2023-02-06T21:48:26.632Z,26.10
2023-02-06T21:52:26.821Z,28.57
2023-02-06T21:56:30.336Z,28.13
2023-02-06T22:00:32.991Z,27.63
2023-02-06T22:04:33.430Z,33.40
2023-02-06T22:08:34.469Z,31.40
2023-02-06T22:12:34.792Z,34.90
2023-02-06T22:16:37.581Z,37.20
2023-02-06T22:20:37.615Z,30.37
2023-02-06T22:24:37.673Z,36.60
2023-02-06T22:28:38.424Z,28.57
2023-02-06T22:32:42.943Z,28.93
2023-02-06T22:36:44.632Z,31.57
2023-02-06T22:40:44.676Z,31.40
2023-02-06T22:44:44.750Z,29.77
2023-02-06T22:48:47.417Z,31.80
2023-02-06T22:52:59.952Z,28.60
2023-02-06T22:57:00.239Z,35.50
2023-02-06T23:01:05.494Z,30.63
2023-02-06T23:05:10.583Z,30.80
2023-02-06T23:09:15.330Z,28.83
2023-02-06T23:13:15.501Z,25.67
2023-02-06T23:17:15.588Z,28.87
2023-02-06T23:21:20.921Z,32.27
2023-02-06T23:25:21.179Z,29.57
2023-02-06T23:29:25.531Z,29.27
2023-02-06T23:33:25.759Z,32.07
2023-02-06T23:37:28.830Z,29.63
2023-02-06T23:41:30.961Z,32.93
2023-02-06T23:45:31.412Z,33.17
2023-02-06T23:49:31.689Z,33.27
2023-02-06T23:53:34.787Z,32.60
2023-02-06T23:57:37.886Z,31.13
